createdAt,value
2023-03-30T00:00:46.657Z,5.53
2023-03-30T00:05:51.757Z,6.15
2023-03-30T00:11:00.880Z,6.00
2023-03-30T00:16:04.559Z,5.22
2023-03-30T00:21:09.561Z,5.85
2023-03-30T00:26:11.347Z,4.97
2023-03-30T00:31:13.274Z,5.00
2023-03-30T00:36:17.184Z,5.78
2023-03-30T00:41:19.121Z,5.05
2023-03-30T00:46:22.948Z,5.10
2023-03-30T00:51:28.216Z,4.90
2023-03-30T00:56:31.369Z,5.00
2023-03-30T01:01:39.337Z,5.22
2023-03-30T01:06:43.543Z,5.05
2023-03-30T01:11:46.252Z,4.78
2023-03-30T01:17:23.169Z,5.32
2023-03-30T01:22:47.196Z,4.65
2023-03-30T01:28:14.688Z,5.45
2023-03-30T01:33:28.615Z,5.75
2023-03-30T01:38:53.228Z,6.13
2023-03-30T01:44:21.531Z,6.50
2023-03-30T01:49:37.115Z,6.30
2023-03-30T01:54:45.902Z,4.35
2023-03-30T02:00:00.202Z,4.00
2023-03-30T02:05:06.202Z,4.13
2023-03-30T02:10:12.155Z,4.50
2023-03-30T02:15:16.072Z,4.43
2023-03-30T02:20:19.034Z,3.22
2023-03-30T02:25:21.216Z,3.20
2023-03-30T02:30:23.264Z,2.80
2023-03-30T02:35:56.001Z,3.45
2023-03-30T02:41:16.169Z,3.25
2023-03-30T02:46:39.449Z,3.08
2023-03-30T02:52:17.204Z,3.20
2023-03-30T02:57:24.361Z,3.70
2023-03-30T03:02:38.010Z,3.88
2023-03-30T03:07:53.766Z,3.85
2023-03-30T03:12:55.671Z,3.47
2023-03-30T03:17:58.610Z,3.40
2023-03-30T03:23:00.912Z,3.65
2023-03-30T03:28:05.845Z,3.55
2023-03-30T03:33:16.134Z,3.28
2023-03-30T03:38:25.310Z,2.85
2023-03-30T03:43:27.602Z,2.90
2023-03-30T03:48:29.583Z,3.13
2023-03-30T03:53:32.024Z,3.25
2023-03-30T03:58:37.516Z,3.10
2023-03-30T04:03:39.315Z,3.40
2023-03-30T04:08:41.686Z,3.60
2023-03-30T04:13:54.483Z,3.00
2023-03-30T04:19:31.556Z,3.80
2023-03-30T04:24:52.280Z,3.53
2023-03-30T04:30:14.279Z,3.60
2023-03-30T04:35:48.611Z,4.30
2023-03-30T04:41:19.534Z,4.32
2023-03-30T04:46:33.806Z,4.25
2023-03-30T04:52:04.143Z,4.60
2023-03-30T04:57:14.193Z,3.80
2023-03-30T05:02:45.587Z,4.95
2023-03-30T05:07:53.976Z,5.00
2023-03-30T05:13:17.489Z,4.78
2023-03-30T05:18:29.098Z,6.63
2023-03-30T05:23:57.586Z,5.15
2023-03-30T05:29:31.901Z,6.10
2023-03-30T05:34:52.223Z,6.32
2023-03-30T05:40:18.352Z,6.05
2023-03-30T05:45:49.920Z,6.50
2023-03-30T05:51:27.423Z,4.97
2023-03-30T05:56:52.822Z,3.88
2023-03-30T06:02:15.284Z,4.50
2023-03-30T06:07:18.117Z,4.07
2023-03-30T06:12:20.478Z,5.07
2023-03-30T06:17:22.427Z,4.00
2023-03-30T06:22:24.437Z,3.58
2023-03-30T06:27:56.254Z,3.65
2023-03-30T06:32:59.257Z,3.78
2023-03-30T06:38:23.350Z,4.07
2023-03-30T06:43:27.556Z,4.72
2023-03-30T06:48:55.509Z,3.70
2023-03-30T06:54:20.154Z,3.83
2023-03-30T06:59:34.314Z,3.60
2023-03-30T07:05:02.425Z,3.67
2023-03-30T07:10:12.123Z,4.10
2023-03-30T07:15:15.345Z,3.92
2023-03-30T07:20:17.360Z,4.13
2023-03-30T07:25:42.287Z,3.35
2023-03-30T07:30:49.172Z,3.92
2023-03-30T07:35:53.242Z,4.28
2023-03-30T07:40:58.961Z,4.50
2023-03-30T07:46:03.431Z,4.90
2023-03-30T07:51:13.653Z,5.22
2023-03-30T07:56:42.949Z,5.00
2023-03-30T08:01:46.577Z,5.53
2023-03-30T08:07:12.643Z,5.22
2023-03-30T08:12:14.589Z,5.25
2023-03-30T08:17:16.527Z,5.65
2023-03-30T08:22:18.501Z,6.18
2023-03-30T08:27:20.371Z,6.40
2023-03-30T08:32:22.225Z,5.78
2023-03-30T08:37:25.140Z,5.28
2023-03-30T08:42:43.366Z,5.13
2023-03-30T08:47:49.422Z,4.63
2023-03-30T08:52:52.689Z,4.75
2023-03-30T08:58:20.172Z,3.88
2023-03-30T09:03:27.892Z,4.43
2023-03-30T09:08:32.959Z,4.32
2023-03-30T09:13:37.954Z,5.03
2023-03-30T09:18:43.924Z,3.75
2023-03-30T09:23:46.288Z,3.60
2023-03-30T09:29:03.837Z,3.10
2023-03-30T09:34:09.294Z,3.88
2023-03-30T09:39:24.302Z,4.57
2023-03-30T09:44:39.068Z,3.60
2023-03-30T09:49:40.912Z,3.95
2023-03-30T09:54:42.766Z,3.90
2023-03-30T09:59:45.857Z,3.17
2023-03-30T10:04:53.780Z,3.42
2023-03-30T10:09:58.008Z,3.22
2023-03-30T10:15:04.346Z,3.35
2023-03-30T10:20:23.963Z,3.17
2023-03-30T10:25:32.818Z,3.10
2023-03-30T10:30:35.903Z,2.92
2023-03-30T10:35:38.678Z,2.55
2023-03-30T10:40:44.051Z,3.78
2023-03-30T10:45:48.351Z,2.72
2023-03-30T10:51:01.493Z,2.85
2023-03-30T10:56:09.393Z,2.90
2023-03-30T11:01:20.891Z,2.85
2023-03-30T11:06:32.834Z,3.20
2023-03-30T11:11:49.107Z,3.42
2023-03-30T11:17:09.031Z,3.03
2023-03-30T11:22:57.460Z,3.58
2023-03-30T11:28:20.963Z,3.60
2023-03-30T11:33:33.747Z,4.97
2023-03-30T11:38:49.776Z,4.88
2023-03-30T11:43:56.047Z,6.20
2023-03-30T11:49:05.022Z,7.00
2023-03-30T11:54:30.997Z,7.07
2023-03-30T12:00:14.697Z,7.30
2023-03-30T12:05:30.970Z,7.43
2023-03-30T12:10:32.775Z,9.02
2023-03-30T12:15:49.071Z,9.35
2023-03-30T12:20:54.168Z,11.00
2023-03-30T12:26:14.588Z,12.18
2023-03-30T12:31:16.599Z,12.23
2023-03-30T12:36:38.126Z,12.63
2023-03-30T12:41:48.860Z,12.27
2023-03-30T12:47:12.213Z,13.13
2023-03-30T12:52:23.676Z,11.98
2023-03-30T12:57:50.087Z,11.27
2023-03-30T13:03:16.150Z,9.73
2023-03-30T13:08:35.916Z,8.65
2023-03-30T13:13:57.559Z,9.20
2023-03-30T13:19:14.813Z,9.40
2023-03-30T13:24:35.992Z,10.75
2023-03-30T13:29:38.033Z,11.35
2023-03-30T13:35:06.971Z,10.55
2023-03-30T13:40:21.821Z,10.88
2023-03-30T13:45:46.712Z,9.23
2023-03-30T13:50:56.223Z,10.27
2023-03-30T13:55:58.167Z,9.10
2023-03-30T14:01:08.394Z,8.52
2023-03-30T14:06:13.583Z,9.10
2023-03-30T14:11:21.877Z,8.90
2023-03-30T14:16:28.903Z,9.18
2023-03-30T14:21:33.372Z,9.07
2023-03-30T14:26:41.110Z,9.20
2023-03-30T14:31:51.047Z,8.70
2023-03-30T14:37:07.782Z,9.13
2023-03-30T14:42:16.837Z,8.90
2023-03-30T14:47:24.459Z,9.73
2023-03-30T14:52:42.010Z,9.88
2023-03-30T14:57:44.298Z,10.07
2023-03-30T15:02:56.874Z,10.40
2023-03-30T15:07:58.984Z,8.07
2023-03-30T15:13:02.686Z,4.40
2023-03-30T15:18:05.365Z,2.47
2023-03-30T15:23:11.799Z,1.70
2023-03-30T15:28:19.485Z,1.10
2023-03-30T15:33:36.392Z,1.38
2023-03-30T15:38:49.037Z,1.20
2023-03-30T15:44:24.691Z,1.27
2023-03-30T15:49:49.288Z,1.40
2023-03-30T15:54:55.653Z,1.60
2023-03-30T16:00:01.927Z,1.50
2023-03-30T16:05:16.424Z,1.48
2023-03-30T16:10:21.554Z,1.60
2023-03-30T16:15:26.175Z,1.50
2023-03-30T16:20:30.540Z,1.48
2023-03-30T16:25:44.024Z,1.50
2023-03-30T16:30:48.914Z,1.58
2023-03-30T16:35:50.727Z,1.63
2023-03-30T16:40:56.353Z,2.03
2023-03-30T16:45:58.352Z,1.70
2023-03-30T16:51:00.369Z,1.40
2023-03-30T16:56:02.443Z,1.60
2023-03-30T17:01:04.771Z,1.48
2023-03-30T17:06:07.620Z,1.40
2023-03-30T17:11:13.514Z,1.60
2023-03-30T17:16:15.881Z,2.13
2023-03-30T17:21:17.750Z,1.98
2023-03-30T17:26:20.084Z,1.88
2023-03-30T17:31:22.747Z,1.70
2023-03-30T17:36:26.621Z,1.90
2023-03-30T17:41:28.840Z,2.17
2023-03-30T17:46:32.522Z,2.10
2023-03-30T17:51:34.389Z,2.00
2023-03-30T17:56:36.248Z,2.00
2023-03-30T18:01:39.197Z,2.10
2023-03-30T18:06:41.763Z,2.35
2023-03-30T18:11:44.362Z,1.67
2023-03-30T18:16:46.259Z,2.15
2023-03-30T18:21:48.060Z,2.35
2023-03-30T18:26:49.884Z,3.00
2023-03-30T18:31:51.716Z,2.63
2023-03-30T18:36:53.510Z,2.53
2023-03-30T18:41:55.383Z,3.00
2023-03-30T18:46:57.162Z,2.60
2023-03-30T18:51:58.942Z,2.95
2023-03-30T18:57:00.807Z,2.80
2023-03-30T19:02:02.887Z,3.10
2023-03-30T19:07:05.728Z,3.15
2023-03-30T19:12:10.112Z,3.47
2023-03-30T19:17:12.034Z,3.42
2023-03-30T19:22:14.076Z,3.00
2023-03-30T19:27:15.886Z,2.90
2023-03-30T19:32:19.651Z,3.00
2023-03-30T19:37:21.756Z,2.70
2023-03-30T19:42:23.638Z,2.60
2023-03-30T19:47:28.889Z,2.40
2023-03-30T19:52:31.467Z,2.65
2023-03-30T19:57:33.362Z,2.63
2023-03-30T20:02:35.387Z,2.30
2023-03-30T20:07:37.763Z,2.55
2023-03-30T20:12:39.797Z,2.67
2023-03-30T20:17:42.132Z,2.63
2023-03-30T20:22:44.618Z,2.50
2023-03-30T20:27:46.842Z,2.72
2023-03-30T20:33:03.772Z,2.15
2023-03-30T20:38:08.559Z,2.63
2023-03-30T20:43:10.736Z,1.90
2023-03-30T20:48:32.825Z,2.22
2023-03-30T20:53:35.803Z,2.92
2023-03-30T20:58:38.889Z,2.30
2023-03-30T21:03:44.300Z,2.38
2023-03-30T21:08:46.138Z,2.25
2023-03-30T21:13:47.920Z,2.40
2023-03-30T21:18:50.564Z,2.03
2023-03-30T21:23:52.423Z,2.20
2023-03-30T21:28:54.245Z,2.38
2023-03-30T21:33:56.247Z,2.17
2023-03-30T21:38:59.477Z,2.35
2023-03-30T21:44:01.437Z,2.70
2023-03-30T21:49:03.415Z,2.50
2023-03-30T21:54:05.727Z,2.50
2023-03-30T21:59:07.977Z,2.30
2023-03-30T22:04:09.884Z,3.05
2023-03-30T22:09:13.908Z,2.50
2023-03-30T22:14:15.771Z,2.70
2023-03-30T22:19:19.045Z,2.50
2023-03-30T22:24:20.910Z,2.72
2023-03-30T22:29:23.345Z,2.17
2023-03-30T22:34:25.746Z,2.55
2023-03-30T22:39:28.069Z,2.30
2023-03-30T22:44:29.892Z,1.92
2023-03-30T22:49:31.675Z,2.70
2023-03-30T22:54:33.785Z,2.30
2023-03-30T22:59:35.738Z,2.55
2023-03-30T23:04:39.908Z,2.15
2023-03-30T23:09:47.522Z,2.75
2023-03-30T23:14:49.360Z,3.63
2023-03-30T23:19:55.744Z,2.67
2023-03-30T23:24:57.569Z,2.72
2023-03-30T23:29:59.454Z,2.63
2023-03-30T23:35:02.237Z,2.65
2023-03-30T23:40:07.583Z,3.08
2023-03-30T23:45:09.811Z,2.33
2023-03-30T23:50:11.664Z,2.67
2023-03-30T23:55:13.748Z,2.67
